Time;durP1;ratioP1;P1;durP2;ratioP2;P2;SDS_P1;SDS_P2;PMS_P1;PMS_P2;Temp;Humidity;BMP_temperature;BMP_pressure;BME280_temperature;BME280_humidity;BME280_pressure;Samples;Min_cycle;Max_cycle;Signal;HPM_P1;HPM_P2
2020/12/21 00:00:10;;;;;;;27.40;15.77;;;;;;;;;;5078582;28;20357;-82
2020/12/21 00:02:36;;;;;;;29.23;16.60;;;;;;;;;;5078602;28;20021;-82
2020/12/21 00:05:03;;;;;;;30.20;16.27;;;;;;;;;;5078461;28;20093;-82
2020/12/21 00:07:30;;;;;;;31.65;15.95;;;;;;;;;;5078633;28;20021;-83
2020/12/21 00:09:56;;;;;;;35.90;18.20;;;;;;;;;;5077804;28;20039;-81
2020/12/21 00:12:22;;;;;;;32.70;17.52;;;;;;;;;;5078149;28;20425;-81
2020/12/21 00:14:48;;;;;;;38.67;17.55;;;;;;;;;;5077709;28;20082;-82
2020/12/21 00:17:14;;;;;;;34.55;17.02;;;;;;;;;;5078237;28;20315;-81
2020/12/21 00:19:40;;;;;;;29.90;15.32;;;;;;;;;;5077831;28;20020;-79
2020/12/21 00:22:06;;;;;;;28.40;16.25;;;;;;;;;;5077809;28;20024;-81
2020/12/21 00:24:32;;;;;;;27.50;14.95;;;;;;;;;;5077855;28;20028;-80
2020/12/21 00:26:58;;;;;;;26.10;15.30;;;;;;;;;;5077735;28;20418;-82
2020/12/21 00:29:24;;;;;;;26.77;14.48;;;;;;;;;;5078078;28;20317;-81
2020/12/21 00:31:50;;;;;;;25.05;14.35;;;;;;;;;;5077682;28;20031;-81
2020/12/21 00:34:17;;;;;;;24.67;14.43;;;;;;;;;;5077822;28;20040;-82
2020/12/21 00:36:44;;;;;;;23.45;14.32;;;;;;;;;;5077972;28;20336;-81
2020/12/21 00:39:29;;;;;;;28.52;14.88;;;;;;;;;;5077598;28;20402;-81
2020/12/21 00:41:55;;;;;;;25.77;14.98;;;;;;;;;;5077812;28;20040;-81
2020/12/21 00:44:21;;;;;;;26.38;14.82;;;;;;;;;;5059881;28;20028;-80
2020/12/21 00:46:47;;;;;;;25.08;14.05;;;;;;;;;;5077429;28;20031;-80
2020/12/21 00:49:13;;;;;;;24.00;13.65;;;;;;;;;;5077111;28;20024;-80
2020/12/21 00:51:39;;;;;;;24.02;13.52;;;;;;;;;;5059254;28;20032;-81
2020/12/21 00:54:05;;;;;;;27.67;13.85;;;;;;;;;;5077242;28;20062;-80
2020/12/21 00:56:32;;;;;;;24.23;13.77;;;;;;;;;;5077039;28;20021;-80
2020/12/21 00:58:58;;;;;;;24.63;13.82;;;;;;;;;;5077536;28;20021;-81
2020/12/21 01:01:28;;;;;;;24.33;13.35;;;;;;;;;;5077474;28;20175;-81
2020/12/21 01:03:54;;;;;;;24.70;13.95;;;;;;;;;;5077640;28;20080;-81
2020/12/21 01:06:20;;;;;;;25.80;14.20;;;;;;;;;;5077290;28;20070;-80
2020/12/21 01:08:47;;;;;;;26.55;14.40;;;;;;;;;;5077271;28;20067;-81
2020/12/21 01:11:14;;;;;;;23.40;13.27;;;;;;;;;;5077181;28;20045;-81
2020/12/21 01:13:40;;;;;;;24.23;13.80;;;;;;;;;;5077288;28;20116;-82
2020/12/21 01:16:06;;;;;;;23.77;13.15;;;;;;;;;;5077605;28;20100;-82
2020/12/21 01:18:33;;;;;;;23.17;13.45;;;;;;;;;;5077442;28;20413;-81
2020/12/21 01:20:59;;;;;;;25.10;14.23;;;;;;;;;;5077088;28;20047;-81
2020/12/21 01:23:25;;;;;;;21.52;12.45;;;;;;;;;;5077327;28;20318;-81
2020/12/21 01:25:51;;;;;;;25.17;13.52;;;;;;;;;;5077338;28;20032;-82
2020/12/21 01:28:17;;;;;;;24.42;14.05;;;;;;;;;;5077160;28;20355;-81
2020/12/21 01:30:44;;;;;;;22.80;13.07;;;;;;;;;;5076966;28;20051;-82
2020/12/21 01:33:11;;;;;;;20.35;13.40;;;;;;;;;;5077138;28;20090;-82
2020/12/21 01:35:37;;;;;;;25.30;14.15;;;;;;;;;;5077021;28;20317;-82
2020/12/21 01:38:03;;;;;;;24.77;14.15;;;;;;;;;;5077199;28;20028;-83
2020/12/21 01:43:33;;;;;;;38.33;16.10;;;;;;;;;;5077400;28;20028;-83
2020/12/21 01:46:07;;;;;;;40.40;20.77;;;;;;;;;;5077191;28;20032;-83
2020/12/21 01:48:33;;;;;;;36.42;18.20;;;;;;;;;;5059903;28;20047;-83
2020/12/21 01:50:59;;;;;;;38.40;18.08;;;;;;;;;;5077090;28;20024;-82
2020/12/21 01:53:25;;;;;;;28.52;15.02;;;;;;;;;;5059142;28;20029;-82
2020/12/21 01:55:54;;;;;;;34.58;17.85;;;;;;;;;;5076839;28;20021;-82
2020/12/21 01:58:20;;;;;;;28.35;15.57;;;;;;;;;;5076919;28;20048;-81
2020/12/21 02:00:46;;;;;;;27.50;14.18;;;;;;;;;;5077046;28;20295;-82
2020/12/21 02:03:12;;;;;;;26.45;14.52;;;;;;;;;;5077013;28;20425;-82
2020/12/21 02:05:38;;;;;;;26.38;14.55;;;;;;;;;;5076893;28;20032;-82
2020/12/21 02:08:04;;;;;;;24.02;12.27;;;;;;;;;;5077154;28;20020;-81
2020/12/21 02:10:31;;;;;;;28.30;15.13;;;;;;;;;;5077682;28;20122;-82
2020/12/21 02:12:57;;;;;;;27.48;13.98;;;;;;;;;;5060380;28;20091;-81
2020/12/21 02:15:23;;;;;;;23.75;14.00;;;;;;;;;;5060396;28;20029;-81
2020/12/21 02:17:52;;;;;;;27.92;14.15;;;;;;;;;;5042635;28;20037;-81
2020/12/21 02:20:18;;;;;;;24.35;13.85;;;;;;;;;;5060253;28;20047;-81
2020/12/21 02:22:44;;;;;;;27.50;14.88;;;;;;;;;;5060247;28;20017;-80
2020/12/21 02:25:10;;;;;;;23.63;13.57;;;;;;;;;;5060255;28;20021;-81
2020/12/21 02:27:36;;;;;;;26.48;13.45;;;;;;;;;;5060342;28;20023;-81
2020/12/21 02:30:03;;;;;;;21.33;12.27;;;;;;;;;;5059956;28;20021;-81
2020/12/21 02:32:29;;;;;;;22.77;12.57;;;;;;;;;;5060037;28;20021;-81
2020/12/21 02:34:55;;;;;;;23.83;13.43;;;;;;;;;;5060146;28;20100;-81
2020/12/21 02:37:21;;;;;;;26.05;13.23;;;;;;;;;;5059949;28;20029;-81
2020/12/21 02:40:06;;;;;;;24.73;14.40;;;;;;;;;;5042113;28;20033;-80
2020/12/21 02:42:32;;;;;;;29.65;14.48;;;;;;;;;;5059901;28;20423;-80
2020/12/21 02:44:58;;;;;;;29.15;16.25;;;;;;;;;;5059359;28;20025;-80
2020/12/21 02:47:24;;;;;;;29.45;15.50;;;;;;;;;;5059729;28;20024;-81
2020/12/21 02:49:50;;;;;;;29.02;16.17;;;;;;;;;;5059923;28;20017;-82
2020/12/21 02:52:16;;;;;;;26.27;14.10;;;;;;;;;;5059700;28;20024;-82
2020/12/21 02:54:43;;;;;;;27.27;17.60;;;;;;;;;;5059971;28;20027;-82
2020/12/21 02:57:09;;;;;;;26.42;16.13;;;;;;;;;;5042054;28;20023;-81
2020/12/21 02:59:35;;;;;;;26.98;14.93;;;;;;;;;;5059581;28;20028;-82
2020/12/21 03:02:01;;;;;;;23.33;12.82;;;;;;;;;;5059462;28;20116;-82
2020/12/21 03:04:27;;;;;;;27.85;13.25;;;;;;;;;;5059563;28;20025;-82
2020/12/21 03:06:53;;;;;;;25.17;13.15;;;;;;;;;;5059696;28;20330;-82
2020/12/21 03:09:39;;;;;;;23.17;12.90;;;;;;;;;;5041391;28;20423;-82
2020/12/21 03:12:05;;;;;;;22.63;13.52;;;;;;;;;;5073729;28;20091;-82
2020/12/21 03:14:31;;;;;;;23.40;13.23;;;;;;;;;;5079297;28;20104;-82
2020/12/21 03:16:57;;;;;;;22.92;12.45;;;;;;;;;;5061464;28;20021;-81
2020/12/21 03:19:23;;;;;;;21.90;12.60;;;;;;;;;;5079181;28;20029;-81
2020/12/21 03:21:49;;;;;;;23.90;12.93;;;;;;;;;;5061538;28;20024;-82
2020/12/21 03:24:16;;;;;;;24.42;12.80;;;;;;;;;;5079155;28;20025;-80
2020/12/21 03:26:42;;;;;;;23.77;13.02;;;;;;;;;;5079026;28;20028;-81
2020/12/21 03:29:08;;;;;;;33.10;14.70;;;;;;;;;;5060869;28;20507;-81
2020/12/21 03:31:34;;;;;;;29.10;14.38;;;;;;;;;;5061065;28;20043;-81
2020/12/21 03:34:00;;;;;;;31.98;16.23;;;;;;;;;;5079168;28;20104;-81
2020/12/21 03:36:26;;;;;;;29.90;15.90;;;;;;;;;;5078811;28;20035;-81
2020/12/21 03:38:52;;;;;;;30.35;16.65;;;;;;;;;;5078798;28;20047;-81
2020/12/21 03:41:18;;;;;;;29.65;15.48;;;;;;;;;;5078713;28;20045;-81
2020/12/21 03:43:44;;;;;;;38.92;20.77;;;;;;;;;;5078835;28;20035;-81
2020/12/21 03:46:10;;;;;;;41.60;20.35;;;;;;;;;;5078718;28;20035;-81
2020/12/21 03:48:36;;;;;;;38.78;20.15;;;;;;;;;;5060549;28;20067;-81
2020/12/21 03:51:02;;;;;;;30.27;16.40;;;;;;;;;;5078365;28;20024;-81
2020/12/21 03:53:28;;;;;;;31.52;16.20;;;;;;;;;;5078569;28;20398;-81
2020/12/21 03:59:16;;;;;;;29.83;16.33;;;;;;;;;;5078898;28;20031;-82
2020/12/21 04:01:42;;;;;;;27.88;16.13;;;;;;;;;;5078412;28;20051;-82
2020/12/21 04:04:08;;;;;;;32.85;17.05;;;;;;;;;;5078380;28;20028;-82
2020/12/21 04:06:35;;;;;;;28.40;15.40;;;;;;;;;;5078284;28;20020;-82
2020/12/21 04:09:01;;;;;;;30.88;16.50;;;;;;;;;;5078374;28;20429;-82
2020/12/21 04:11:27;;;;;;;43.20;24.33;;;;;;;;;;5077505;28;20509;-82
2020/12/21 04:13:53;;;;;;;63.08;31.50;;;;;;;;;;5078352;28;20037;-82
2020/12/21 04:16:19;;;;;;;58.10;31.13;;;;;;;;;;5078562;28;20029;-82
2020/12/21 04:18:45;;;;;;;45.70;23.73;;;;;;;;;;5078457;28;20103;-82
2020/12/21 04:21:12;;;;;;;34.92;17.83;;;;;;;;;;5078034;28;20016;-82
2020/12/21 04:23:39;;;;;;;34.28;16.38;;;;;;;;;;5078065;28;20117;-82
2020/12/21 04:26:05;;;;;;;37.08;21.73;;;;;;;;;;5077946;28;20406;-82
2020/12/21 04:28:31;;;;;;;40.22;22.05;;;;;;;;;;5077914;28;20452;-82
2020/12/21 04:31:00;;;;;;;282.42;133.02;;;;;;;;;;5077387;28;20351;-83
2020/12/21 04:33:26;;;;;;;490.35;250.13;;;;;;;;;;5077723;28;20398;-83
2020/12/21 04:35:52;;;;;;;329.20;173.55;;;;;;;;;;5078410;28;20025;-84
2020/12/21 04:38:18;;;;;;;167.48;93.07;;;;;;;;;;5078188;28;20031;-83
2020/12/21 04:43:48;;;;;;;95.13;47.92;;;;;;;;;;5078253;28;20031;-83
2020/12/21 04:46:15;;;;;;;41.45;22.40;;;;;;;;;;5077806;28;20046;-83
2020/12/21 04:48:42;;;;;;;39.20;21.50;;;;;;;;;;5078274;28;20086;-83
2020/12/21 04:51:09;;;;;;;26.95;15.55;;;;;;;;;;5077624;28;20024;-84
2020/12/21 04:53:37;;;;;;;28.80;15.48;;;;;;;;;;5060164;28;20021;-83
2020/12/21 04:56:41;;;;;;;32.08;16.40;;;;;;;;;;5077899;28;20028;-83
2020/12/21 04:59:07;;;;;;;26.50;15.20;;;;;;;;;;5077836;28;20346;-83
2020/12/21 05:01:33;;;;;;;32.78;18.05;;;;;;;;;;5077364;28;20029;-82
2020/12/21 05:03:59;;;;;;;34.95;19.17;;;;;;;;;;5077675;28;20032;-82
2020/12/21 05:06:25;;;;;;;32.53;17.00;;;;;;;;;;5077615;28;20062;-82
2020/12/21 05:09:01;;;;;;;37.67;17.52;;;;;;;;;;5059768;28;20062;-82
2020/12/21 05:14:46;;;;;;;37.10;21.67;;;;;;;;;;5076965;28;20043;-82
2020/12/21 05:17:18;;;;;;;34.70;19.33;;;;;;;;;;5077471;28;20036;-82
2020/12/21 05:19:45;;;;;;;31.40;17.42;;;;;;;;;;5059537;28;20043;-82
2020/12/21 05:22:14;;;;;;;29.83;15.75;;;;;;;;;;5077202;28;20040;-82
2020/12/21 05:24:41;;;;;;;27.85;15.20;;;;;;;;;;5077284;28;20028;-82
2020/12/21 05:27:14;;;;;;;30.23;16.00;;;;;;;;;;5077129;28;20055;-82
2020/12/21 05:29:40;;;;;;;41.83;27.20;;;;;;;;;;5077139;28;20028;-83
2020/12/21 05:32:11;;;;;;;32.78;18.40;;;;;;;;;;5077267;28;20410;-83
2020/12/21 05:34:37;;;;;;;36.67;20.88;;;;;;;;;;5077315;28;20035;-81
2020/12/21 05:37:20;;;;;;;42.65;22.80;;;;;;;;;;5077304;28;20021;-82
2020/12/21 05:40:01;;;;;;;;;;;;;;;;;;5077421;28;20071;-81
2020/12/21 05:42:27;;;;;;;85.90;51.40;;;;;;;;;;5059345;28;19908;-82
2020/12/21 05:45:06;;;;;;;87.50;52.67;;;;;;;;;;5080895;28;20112;-83
2020/12/21 05:47:32;;;;;;;97.22;59.05;;;;;;;;;;5081453;28;20020;-82
2020/12/21 05:50:03;;;;;;;101.88;68.22;;;;;;;;;;5080707;28;20028;-82
2020/12/21 05:52:34;;;;;;;114.90;74.85;;;;;;;;;;5063296;28;20342;-82
2020/12/21 05:55:25;;;;;;;76.75;46.65;;;;;;;;;;5063112;28;20399;-82
2020/12/21 05:57:52;;;;;;;156.73;85.00;;;;;;;;;;5080808;28;20021;-82
2020/12/21 06:00:18;;;;;;;106.57;58.65;;;;;;;;;;5080751;28;20024;-82
2020/12/21 06:02:44;;;;;;;138.88;88.25;;;;;;;;;;5080807;28;20402;-82
2020/12/21 06:05:11;;;;;;;64.55;37.05;;;;;;;;;;5062997;28;20024;-82
2020/12/21 06:07:38;;;;;;;59.63;36.10;;;;;;;;;;5062940;28;20032;-81
2020/12/21 06:10:16;;;;;;;75.38;39.38;;;;;;;;;;5080453;28;20051;-82
2020/12/21 06:12:45;;;;;;;85.50;44.08;;;;;;;;;;5080359;28;20020;-82
2020/12/21 06:15:12;;;;;;;70.07;35.97;;;;;;;;;;5080618;28;20032;-82
2020/12/21 06:17:39;;;;;;;53.65;29.80;;;;;;;;;;5080558;28;20115;-82
2020/12/21 06:20:06;;;;;;;50.85;29.70;;;;;;;;;;5062766;28;20066;-82
2020/12/21 06:22:32;;;;;;;47.95;27.27;;;;;;;;;;5080602;28;20070;-82
2020/12/21 06:24:58;;;;;;;47.95;25.70;;;;;;;;;;5080737;28;20021;-82
2020/12/21 06:27:24;;;;;;;50.17;23.52;;;;;;;;;;5080052;28;20409;-82
2020/12/21 06:30:02;;;;;;;84.60;37.15;;;;;;;;;;5080408;28;20024;-82
2020/12/21 06:32:31;;;;;;;137.32;60.83;;;;;;;;;;5062103;28;20078;-82
2020/12/21 06:34:57;;;;;;;86.57;44.28;;;;;;;;;;5080469;28;20031;-83
2020/12/21 06:37:24;;;;;;;47.65;27.55;;;;;;;;;;5080420;28;20070;-83
2020/12/21 06:39:57;;;;;;;41.17;23.25;;;;;;;;;;5080187;28;20029;-83
2020/12/21 06:42:26;;;;;;;38.33;24.05;;;;;;;;;;5080274;28;20458;-82
2020/12/21 06:44:54;;;;;;;36.80;24.13;;;;;;;;;;5080046;28;20051;-82
2020/12/21 06:47:21;;;;;;;38.83;26.38;;;;;;;;;;5062525;28;20116;-82
2020/12/21 06:49:47;;;;;;;28.77;19.08;;;;;;;;;;5080281;28;20283;-83
2020/12/21 06:52:13;;;;;;;53.88;33.00;;;;;;;;;;5062153;28;20416;-82
2020/12/21 06:54:39;;;;;;;47.53;26.13;;;;;;;;;;5079308;28;20035;-82
2020/12/21 06:57:05;;;;;;;63.65;35.88;;;;;;;;;;5062031;28;20115;-82
2020/12/21 06:59:31;;;;;;;53.33;30.25;;;;;;;;;;5061816;28;20101;-82
2020/12/21 07:01:57;;;;;;;77.97;47.05;;;;;;;;;;5079977;28;20029;-82
2020/12/21 07:04:32;;;;;;;60.40;35.72;;;;;;;;;;5061337;28;20072;-83
2020/12/21 07:07:01;;;;;;;93.38;55.33;;;;;;;;;;5079767;28;20440;-83
2020/12/21 07:09:27;;;;;;;104.22;59.17;;;;;;;;;;5061567;28;20051;-83
2020/12/21 07:12:30;;;;;;;74.35;38.33;;;;;;;;;;5079416;28;20032;-82
2020/12/21 07:14:56;;;;;;;;;;;;;;;;;;5079664;28;20132;-82
2020/12/21 07:17:22;;;;;;;44.88;25.55;;;;;;;;;;5079419;28;19939;-82
2020/12/21 07:19:48;;;;;;;33.72;19.55;;;;;;;;;;5061582;28;20021;-81
2020/12/21 07:22:14;;;;;;;38.60;20.38;;;;;;;;;;5079233;28;20056;-82
2020/12/21 07:24:41;;;;;;;57.83;33.67;;;;;;;;;;5079481;28;20040;-82
2020/12/21 07:27:25;;;;;;;63.80;36.42;;;;;;;;;;5079031;28;20436;-83
2020/12/21 07:29:51;;;;;;;60.30;36.85;;;;;;;;;;5079368;28;20032;-81
2020/12/21 07:32:17;;;;;;;52.28;32.47;;;;;;;;;;5079127;28;20112;-82
2020/12/21 07:34:43;;;;;;;44.97;27.40;;;;;;;;;;5078645;28;20029;-82
2020/12/21 07:37:10;;;;;;;30.52;18.50;;;;;;;;;;5079083;28;20024;-83
2020/12/21 07:39:36;;;;;;;29.52;17.80;;;;;;;;;;5078995;28;20056;-82
2020/12/21 07:42:06;;;;;;;31.55;18.88;;;;;;;;;;5079206;28;20024;-81
2020/12/21 07:44:33;;;;;;;36.38;21.23;;;;;;;;;;5061132;28;20033;-81
2020/12/21 07:46:59;;;;;;;37.70;20.15;;;;;;;;;;5078549;28;20028;-81
2020/12/21 07:49:25;;;;;;;26.30;16.23;;;;;;;;;;5078590;28;20303;-81
2020/12/21 07:51:57;;;;;;;26.05;16.30;;;;;;;;;;5078593;28;20111;-82
2020/12/21 07:54:23;;;;;;;31.30;18.73;;;;;;;;;;5078476;28;20024;-81
2020/12/21 07:56:59;;;;;;;33.28;16.73;;;;;;;;;;5078458;28;20020;-81
2020/12/21 07:59:25;;;;;;;43.75;19.85;;;;;;;;;;5078495;28;20027;-81
2020/12/21 08:01:56;;;;;;;43.60;21.17;;;;;;;;;;5075675;28;20341;-81
2020/12/21 08:04:22;;;;;;;51.17;23.80;;;;;;;;;;5069446;28;20411;-83
2020/12/21 08:06:49;;;;;;;41.28;19.80;;;;;;;;;;5058235;28;20422;-80
2020/12/21 08:09:15;;;;;;;29.08;14.85;;;;;;;;;;5058068;28;20037;-80
2020/12/21 08:11:41;;;;;;;26.20;14.15;;;;;;;;;;5057501;28;20098;-81
2020/12/21 08:14:15;;;;;;;28.13;16.20;;;;;;;;;;5058050;28;20045;-81
2020/12/21 08:16:42;;;;;;;24.40;14.18;;;;;;;;;;5057902;28;20078;-80
2020/12/21 08:19:13;;;;;;;25.15;13.43;;;;;;;;;;5040308;28;20029;-82
2020/12/21 08:21:39;;;;;;;27.58;13.60;;;;;;;;;;5058142;28;20430;-81
2020/12/21 08:24:05;;;;;;;23.17;12.20;;;;;;;;;;5058009;28;20074;-81
2020/12/21 08:29:35;;;;;;;29.77;16.15;;;;;;;;;;5058294;28;20471;-82
2020/12/21 08:32:01;;;;;;;29.15;18.30;;;;;;;;;;5058032;28;20453;-84
2020/12/21 08:34:27;;;;;;;29.02;15.70;;;;;;;;;;5058038;28;20304;-83
2020/12/21 08:36:56;;;;;;;27.05;14.80;;;;;;;;;;5040390;28;20411;-83
2020/12/21 08:39:23;;;;;;;21.38;14.30;;;;;;;;;;5063137;28;20036;-82
2020/12/21 08:41:53;;;;;;;21.50;13.95;;;;;;;;;;5088251;28;20036;-82
2020/12/21 08:44:21;;;;;;;23.67;14.65;;;;;;;;;;5098108;28;20028;-82
2020/12/21 08:46:48;;;;;;;26.92;14.88;;;;;;;;;;5097794;28;20031;-82
2020/12/21 08:49:14;;;;;;;27.33;14.98;;;;;;;;;;5098032;28;20069;-82
2020/12/21 08:51:40;;;;;;;24.80;14.23;;;;;;;;;;5097953;28;20020;-82
2020/12/21 08:54:06;;;;;;;25.48;14.18;;;;;;;;;;5097757;28;20428;-82
2020/12/21 08:56:33;;;;;;;29.20;15.80;;;;;;;;;;5097806;28;20020;-82
2020/12/21 08:58:59;;;;;;;28.10;15.30;;;;;;;;;;5097740;28;20028;-82
2020/12/21 09:01:25;;;;;;;26.58;15.35;;;;;;;;;;5097681;28;20059;-82
2020/12/21 09:03:51;;;;;;;33.35;15.65;;;;;;;;;;5097720;28;20314;-82
2020/12/21 09:06:18;;;;;;;31.30;17.00;;;;;;;;;;5097723;28;20039;-82
2020/12/21 09:08:44;;;;;;;29.05;14.10;;;;;;;;;;5097616;28;20414;-83
2020/12/21 09:11:11;;;;;;;24.63;13.98;;;;;;;;;;5079746;28;20040;-82
2020/12/21 09:13:38;;;;;;;30.27;15.20;;;;;;;;;;5079500;28;20541;-82
2020/12/21 09:16:04;;;;;;;22.33;12.50;;;;;;;;;;5079630;28;20027;-82
2020/12/21 09:18:30;;;;;;;21.73;12.52;;;;;;;;;;5097120;28;20028;-82
2020/12/21 09:20:56;;;;;;;27.20;15.00;;;;;;;;;;5097474;28;20028;-82
2020/12/21 09:23:22;;;;;;;34.22;18.08;;;;;;;;;;5097331;28;20073;-82
2020/12/21 09:26:07;;;;;;;29.52;16.00;;;;;;;;;;5079692;28;20296;-82
2020/12/21 09:28:33;;;;;;;23.70;13.68;;;;;;;;;;5054480;28;20039;-82
2020/12/21 09:30:59;;;;;;;29.85;16.30;;;;;;;;;;5077264;28;20314;-83
2020/12/21 09:33:25;;;;;;;42.58;18.48;;;;;;;;;;5041338;28;20037;-83
2020/12/21 09:35:51;;;;;;;28.52;14.20;;;;;;;;;;5057107;28;20021;-81
2020/12/21 09:38:17;;;;;;;40.60;19.27;;;;;;;;;;5057140;28;20027;-81
2020/12/21 09:40:44;;;;;;;42.30;20.98;;;;;;;;;;5056890;28;20029;-82
2020/12/21 09:43:10;;;;;;;29.40;16.23;;;;;;;;;;5056815;28;20029;-81
2020/12/21 09:45:36;;;;;;;71.97;35.55;;;;;;;;;;5057106;28;20029;-82
2020/12/21 09:48:02;;;;;;;46.90;25.67;;;;;;;;;;5056870;28;20021;-79
2020/12/21 09:50:28;;;;;;;43.70;22.90;;;;;;;;;;5056568;28;20021;-80
2020/12/21 09:52:54;;;;;;;41.67;21.83;;;;;;;;;;5056828;28;20060;-80
2020/12/21 09:55:20;;;;;;;43.92;23.13;;;;;;;;;;5056625;28;20021;-81
2020/12/21 09:57:46;;;;;;;31.30;18.15;;;;;;;;;;5056648;28;20021;-81
2020/12/21 10:00:13;;;;;;;58.97;34.00;;;;;;;;;;5056672;28;20021;-81
2020/12/21 10:02:39;;;;;;;30.65;17.20;;;;;;;;;;5056980;28;20017;-81
2020/12/21 10:05:05;;;;;;;41.00;21.70;;;;;;;;;;5056662;28;20393;-81
2020/12/21 10:07:32;;;;;;;33.20;17.73;;;;;;;;;;5056971;28;20350;-81
2020/12/21 10:09:58;;;;;;;33.00;17.52;;;;;;;;;;5056558;28;20029;-81
2020/12/21 10:12:43;;;;;;;29.48;15.40;;;;;;;;;;5056579;28;20072;-81
2020/12/21 10:15:09;;;;;;;27.95;16.27;;;;;;;;;;5056543;28;20044;-85
2020/12/21 10:17:35;;;;;;;29.60;17.50;;;;;;;;;;5056472;28;20075;-81
2020/12/21 10:20:01;;;;;;;25.85;15.25;;;;;;;;;;5056485;28;20021;-80
2020/12/21 10:22:27;;;;;;;30.58;15.80;;;;;;;;;;5056211;28;20040;-81
2020/12/21 10:24:53;;;;;;;35.22;20.30;;;;;;;;;;5056625;28;20026;-81
2020/12/21 10:27:19;;;;;;;33.67;18.13;;;;;;;;;;5056380;28;20028;-81
2020/12/21 10:29:45;;;;;;;27.98;16.15;;;;;;;;;;5057033;28;20017;-84
2020/12/21 10:32:11;;;;;;;20.95;13.52;;;;;;;;;;5060188;28;20025;-81
2020/12/21 10:34:38;;;;;;;28.50;14.35;;;;;;;;;;5060012;28;20049;-80
2020/12/21 10:37:04;;;;;;;22.88;13.98;;;;;;;;;;5060005;28;20013;-81
2020/12/21 10:39:30;;;;;;;29.08;18.15;;;;;;;;;;5060061;28;20021;-81
2020/12/21 10:41:56;;;;;;;31.85;18.50;;;;;;;;;;5059661;28;20116;-81
2020/12/21 10:44:22;;;;;;;41.78;22.15;;;;;;;;;;5059896;28;20025;-81
2020/12/21 10:46:48;;;;;;;32.00;19.25;;;;;;;;;;5062094;28;20020;-81
2020/12/21 10:49:14;;;;;;;38.78;20.95;;;;;;;;;;5042017;28;20037;-80
2020/12/21 10:51:40;;;;;;;40.30;23.70;;;;;;;;;;5059613;28;20024;-81
2020/12/21 10:54:06;;;;;;;39.97;21.27;;;;;;;;;;5058747;28;20078;-81
2020/12/21 10:56:32;;;;;;;37.13;18.52;;;;;;;;;;5061899;28;20025;-81
2020/12/21 10:58:58;;;;;;;28.10;16.10;;;;;;;;;;5077502;28;20427;-79
2020/12/21 11:01:24;;;;;;;32.95;19.05;;;;;;;;;;5064756;28;20025;-80
2020/12/21 11:03:51;;;;;;;29.58;17.52;;;;;;;;;;5059705;28;20292;-81
2020/12/21 11:06:24;;;;;;;27.35;15.73;;;;;;;;;;5059487;28;20473;-81
2020/12/21 11:08:50;;;;;;;30.45;18.40;;;;;;;;;;5059454;28;20307;-81
2020/12/21 11:14:19;;;;;;;21.33;13.23;;;;;;;;;;5059307;28;20374;-82
2020/12/21 11:16:49;;;;;;;49.38;23.55;;;;;;;;;;5059310;28;20319;-81
2020/12/21 11:19:16;;;;;;;21.58;12.25;;;;;;;;;;5059311;28;20025;-81
2020/12/21 11:21:42;;;;;;;24.38;15.75;;;;;;;;;;5059111;28;20330;-81
2020/12/21 11:24:08;;;;;;;23.85;14.73;;;;;;;;;;5063722;28;20103;-81
2020/12/21 11:26:52;;;;;;;32.08;17.45;;;;;;;;;;5059401;28;20024;-82
2020/12/21 11:29:18;;;;;;;36.17;17.17;;;;;;;;;;5059064;28;20025;-81
2020/12/21 11:31:44;;;;;;;23.23;14.05;;;;;;;;;;5058878;28;20029;-81
2020/12/21 11:34:11;;;;;;;23.70;14.82;;;;;;;;;;5041382;28;20044;-81
2020/12/21 11:36:37;;;;;;;23.20;13.68;;;;;;;;;;5059405;28;20017;-81
2020/12/21 11:39:03;;;;;;;33.72;15.90;;;;;;;;;;5041196;28;20057;-82
2020/12/21 11:41:30;;;;;;;29.30;14.35;;;;;;;;;;5058480;28;20044;-81
2020/12/21 11:43:56;;;;;;;27.75;14.60;;;;;;;;;;5058929;28;20029;-81
2020/12/21 11:46:28;;;;;;;35.97;18.33;;;;;;;;;;5058913;28;20024;-82
2020/12/21 11:48:54;;;;;;;34.65;19.65;;;;;;;;;;5058527;28;20107;-80
2020/12/21 11:51:20;;;;;;;39.78;23.02;;;;;;;;;;5058794;28;20021;-82
2020/12/21 11:53:46;;;;;;;41.50;23.80;;;;;;;;;;5058906;28;20028;-81
2020/12/21 11:56:17;;;;;;;39.35;22.00;;;;;;;;;;5058433;28;20052;-81
2020/12/21 11:58:43;;;;;;;38.92;23.55;;;;;;;;;;5058424;28;20399;-80
2020/12/21 12:01:09;;;;;;;25.60;16.33;;;;;;;;;;5040676;28;20414;-82
2020/12/21 12:03:35;;;;;;;24.67;15.43;;;;;;;;;;5058603;28;20025;-81
2020/12/21 12:06:01;;;;;;;31.25;19.42;;;;;;;;;;5058598;28;20036;-81
2020/12/21 12:08:27;;;;;;;35.80;20.58;;;;;;;;;;5040359;28;20060;-80
2020/12/21 12:10:53;;;;;;;25.13;15.52;;;;;;;;;;5058226;28;20362;-81
2020/12/21 12:13:19;;;;;;;22.15;15.13;;;;;;;;;;5040228;28;20055;-80
2020/12/21 12:15:45;;;;;;;26.23;16.30;;;;;;;;;;5058303;28;20017;-81
2020/12/21 12:18:12;;;;;;;106.60;37.13;;;;;;;;;;5057984;28;20025;-80
2020/12/21 12:20:38;;;;;;;241.18;71.43;;;;;;;;;;5039905;28;20362;-80
2020/12/21 12:23:04;;;;;;;220.00;69.30;;;;;;;;;;5058114;28;20032;-80
2020/12/21 12:25:30;;;;;;;187.23;71.22;;;;;;;;;;5057940;28;20076;-80
2020/12/21 12:27:56;;;;;;;85.60;40.95;;;;;;;;;;5057822;28;20033;-80
2020/12/21 12:30:22;;;;;;;76.95;44.92;;;;;;;;;;5057677;28;20032;-81
2020/12/21 12:32:48;;;;;;;58.25;33.92;;;;;;;;;;5040130;28;20143;-80
2020/12/21 12:35:14;;;;;;;35.53;23.00;;;;;;;;;;5058024;28;20017;-80
2020/12/21 12:37:40;;;;;;;35.10;21.20;;;;;;;;;;5057771;28;20113;-80
2020/12/21 12:40:07;;;;;;;31.58;19.25;;;;;;;;;;5039779;28;20419;-80
2020/12/21 12:42:33;;;;;;;26.55;16.88;;;;;;;;;;5057631;28;20033;-80
2020/12/21 12:45:00;;;;;;;25.17;16.90;;;;;;;;;;5057439;28;20407;-80
2020/12/21 12:47:26;;;;;;;27.48;17.95;;;;;;;;;;5057434;28;20028;-80
2020/12/21 12:49:52;;;;;;;35.53;19.83;;;;;;;;;;5039720;28;20037;-80
2020/12/21 12:52:18;;;;;;;30.13;17.38;;;;;;;;;;5056914;28;20039;-80
2020/12/21 12:54:44;;;;;;;30.38;17.55;;;;;;;;;;5039591;28;20028;-80
2020/12/21 12:57:10;;;;;;;26.20;14.80;;;;;;;;;;5039820;28;20028;-80
2020/12/21 12:59:36;;;;;;;28.92;15.88;;;;;;;;;;5057371;28;20440;-80
2020/12/21 13:02:02;;;;;;;34.28;17.38;;;;;;;;;;5057187;28;20044;-80
2020/12/21 13:04:28;;;;;;;40.90;20.38;;;;;;;;;;5057225;28;20021;-80
2020/12/21 13:06:54;;;;;;;66.80;29.83;;;;;;;;;;5057263;28;20043;-80
2020/12/21 13:09:20;;;;;;;66.35;27.80;;;;;;;;;;5057108;28;20025;-80
2020/12/21 13:12:10;;;;;;;76.22;39.78;;;;;;;;;;5057015;28;20029;-80
2020/12/21 13:14:37;;;;;;;59.08;28.73;;;;;;;;;;5056833;28;20064;-81
2020/12/21 13:17:03;;;;;;;65.40;30.90;;;;;;;;;;5056978;28;20068;-80
2020/12/21 13:19:29;;;;;;;68.78;32.45;;;;;;;;;;5057467;28;20063;-81
2020/12/21 13:21:55;;;;;;;50.58;25.15;;;;;;;;;;5057076;28;20035;-81
2020/12/21 13:24:21;;;;;;;43.97;24.58;;;;;;;;;;5039454;28;20025;-80
2020/12/21 13:26:51;;;;;;;48.08;24.73;;;;;;;;;;5057052;28;20033;-80
2020/12/21 13:29:20;;;;;;;36.85;19.70;;;;;;;;;;5057133;28;20352;-81
2020/12/21 13:31:47;;;;;;;45.65;25.20;;;;;;;;;;5057071;28;20025;-81
2020/12/21 13:34:13;;;;;;;38.15;21.67;;;;;;;;;;5056998;28;20063;-80
2020/12/21 13:36:39;;;;;;;37.30;21.73;;;;;;;;;;5056838;28;20021;-80
2020/12/21 13:39:05;;;;;;;48.35;28.77;;;;;;;;;;5039023;28;20063;-80
2020/12/21 13:41:31;;;;;;;44.45;22.80;;;;;;;;;;5039028;28;20045;-79
2020/12/21 13:43:57;;;;;;;48.15;26.08;;;;;;;;;;5056740;28;20029;-80
2020/12/21 13:46:24;;;;;;;49.00;26.35;;;;;;;;;;5056703;28;20334;-80
2020/12/21 13:48:50;;;;;;;60.88;32.42;;;;;;;;;;5057086;28;20064;-80
2020/12/21 13:51:16;;;;;;;61.88;32.80;;;;;;;;;;5056630;28;20458;-80
2020/12/21 13:53:42;;;;;;;62.60;31.70;;;;;;;;;;5056930;28;20300;-80
2020/12/21 13:56:08;;;;;;;71.47;34.13;;;;;;;;;;5056737;28;20021;-80
2020/12/21 13:58:34;;;;;;;88.68;42.40;;;;;;;;;;5056635;28;20469;-80
2020/12/21 14:01:00;;;;;;;77.72;40.45;;;;;;;;;;5056702;28;20049;-80
2020/12/21 14:03:28;;;;;;;68.35;34.95;;;;;;;;;;5056824;28;20025;-80
2020/12/21 14:05:54;;;;;;;67.63;34.78;;;;;;;;;;5060463;28;20033;-80
2020/12/21 14:08:20;;;;;;;55.38;30.92;;;;;;;;;;5060520;28;20041;-80
2020/12/21 14:10:46;;;;;;;58.55;33.05;;;;;;;;;;5060490;28;20040;-80
2020/12/21 14:13:13;;;;;;;59.83;32.33;;;;;;;;;;5060001;28;20044;-80
2020/12/21 14:15:39;;;;;;;57.83;31.50;;;;;;;;;;5060398;28;20775;-80
2020/12/21 14:18:05;;;;;;;70.70;34.92;;;;;;;;;;5060070;28;20024;-80
2020/12/21 14:20:32;;;;;;;72.82;36.28;;;;;;;;;;5060627;28;20021;-80
2020/12/21 14:22:58;;;;;;;60.05;31.40;;;;;;;;;;5060138;28;20032;-80
2020/12/21 14:25:24;;;;;;;54.53;26.05;;;;;;;;;;5060268;28;20300;-80
2020/12/21 14:27:50;;;;;;;55.92;28.48;;;;;;;;;;5042489;28;20298;-80
2020/12/21 14:30:17;;;;;;;52.80;29.25;;;;;;;;;;5060093;28;20017;-80
2020/12/21 14:32:43;;;;;;;52.22;28.25;;;;;;;;;;5059972;28;20031;-80
2020/12/21 14:35:09;;;;;;;73.68;35.85;;;;;;;;;;5042295;28;20021;-80